createdAt,value
2019-04-03T00:02:18.580Z,9.50
2019-04-03T00:05:02.966Z,9.50
2019-04-03T00:07:37.866Z,9.60
2019-04-03T00:10:11.123Z,9.40
2019-04-03T00:12:43.871Z,9.30
2019-04-03T00:15:16.941Z,9.20
2019-04-03T00:17:49.384Z,9.10
2019-04-03T00:20:21.024Z,9.10
2019-04-03T00:22:52.520Z,9.00
2019-04-03T00:25:25.308Z,9.10
2019-04-03T00:27:58.284Z,9.10
2019-04-03T00:30:31.247Z,9.00
2019-04-03T00:33:04.445Z,9.00
2019-04-03T00:35:38.212Z,9.10
2019-04-03T00:38:11.177Z,9.20
2019-04-03T00:40:44.167Z,9.20
2019-04-03T00:43:16.049Z,9.30
2019-04-03T00:45:48.595Z,9.30
2019-04-03T00:48:21.219Z,9.30
2019-04-03T00:50:56.639Z,9.30
2019-04-03T00:53:27.758Z,9.30
2019-04-03T00:56:01.039Z,9.20
2019-04-03T00:58:51.279Z,9.10
2019-04-03T01:01:24.708Z,9.20
2019-04-03T01:04:01.446Z,9.10
2019-04-03T01:06:33.540Z,9.10
2019-04-03T01:09:07.608Z,9.10
2019-04-03T01:11:40.040Z,9.10
2019-04-03T01:14:12.473Z,9.20
2019-04-03T01:16:45.084Z,9.10
2019-04-03T01:19:17.420Z,9.10
2019-04-03T01:21:49.172Z,9.00
2019-04-03T01:24:21.151Z,9.00
2019-04-03T01:26:53.353Z,9.00
2019-04-03T01:29:25.374Z,9.10
2019-04-03T01:31:57.424Z,9.10
2019-04-03T01:34:29.365Z,9.10
2019-04-03T01:37:01.451Z,9.10
2019-04-03T01:39:33.728Z,9.10
2019-04-03T01:42:06.914Z,9.20
2019-04-03T01:44:39.303Z,9.20
2019-04-03T01:47:11.377Z,9.20
2019-04-03T01:49:43.781Z,9.20
2019-04-03T01:52:16.460Z,9.20
2019-04-03T01:54:48.019Z,9.30
2019-04-03T01:57:20.110Z,9.20
2019-04-03T01:59:52.754Z,9.30
2019-04-03T02:02:24.860Z,9.30
2019-04-03T02:04:57.144Z,9.20
2019-04-03T02:07:28.728Z,9.30
2019-04-03T02:10:01.695Z,9.20
2019-04-03T02:12:34.811Z,9.20
2019-04-03T02:15:07.297Z,9.20
2019-04-03T02:17:39.939Z,9.30
2019-04-03T02:20:12.593Z,9.40
2019-04-03T02:22:44.997Z,9.30
2019-04-03T02:25:16.489Z,9.30
2019-04-03T02:27:48.512Z,9.30
2019-04-03T02:30:20.642Z,9.30
2019-04-03T02:32:55.206Z,9.30
2019-04-03T02:35:26.894Z,9.20
2019-04-03T02:37:59.164Z,9.30
2019-04-03T02:40:33.065Z,9.30
2019-04-03T02:43:05.821Z,9.30
2019-04-03T02:45:39.208Z,9.30
2019-04-03T02:48:11.267Z,9.20
2019-04-03T02:50:46.511Z,9.20
2019-04-03T02:53:16.809Z,9.30
2019-04-03T02:55:49.292Z,9.30
2019-04-03T02:58:22.600Z,9.30
2019-04-03T03:00:55.009Z,9.30
2019-04-03T03:03:26.994Z,9.20
2019-04-03T03:06:00.568Z,9.10
2019-04-03T03:08:32.402Z,9.10
2019-04-03T03:11:05.433Z,9.20
2019-04-03T03:13:37.867Z,9.10
2019-04-03T03:16:10.849Z,9.20
2019-04-03T03:18:43.249Z,9.20
2019-04-03T03:21:15.529Z,9.20
2019-04-03T03:23:47.502Z,9.20
2019-04-03T03:26:19.786Z,9.20
2019-04-03T03:28:52.140Z,9.20
2019-04-03T03:31:56.382Z,9.20
2019-04-03T03:34:02.787Z,9.20
2019-04-03T03:36:32.470Z,9.20
2019-04-03T03:39:06.425Z,9.20
2019-04-03T03:41:40.513Z,9.20
2019-04-03T03:44:12.637Z,9.30
2019-04-03T03:46:45.378Z,9.30
2019-04-03T03:49:18.836Z,9.30
2019-04-03T03:51:54.284Z,9.40
2019-04-03T03:54:26.525Z,9.50
2019-04-03T03:56:59.159Z,9.50
2019-04-03T03:59:42.060Z,9.60
2019-04-03T04:02:14.210Z,9.60
2019-04-03T04:04:48.716Z,9.50
2019-04-03T04:07:21.698Z,9.50
2019-04-03T04:09:55.447Z,8.70
2019-04-03T04:12:28.218Z,9.50
2019-04-03T04:15:00.252Z,9.50
2019-04-03T04:17:32.760Z,9.50
2019-04-03T04:20:06.050Z,9.50
2019-04-03T04:22:38.628Z,9.50
2019-04-03T04:25:11.064Z,9.70
2019-04-03T04:27:43.273Z,9.60
2019-04-03T04:30:19.339Z,9.70
2019-04-03T04:32:51.917Z,9.80
2019-04-03T04:35:24.743Z,9.80
2019-04-03T04:37:57.597Z,9.80
2019-04-03T04:40:31.282Z,9.80
2019-04-03T04:43:04.397Z,9.80
2019-04-03T04:45:38.078Z,9.90
2019-04-03T04:48:10.509Z,9.90
2019-04-03T04:50:42.990Z,9.90
2019-04-03T04:53:15.603Z,9.90
2019-04-03T04:55:48.308Z,9.90
2019-04-03T04:58:20.722Z,10.00
2019-04-03T05:00:53.810Z,10.00
2019-04-03T05:03:27.476Z,10.00
2019-04-03T05:05:59.094Z,10.00
2019-04-03T05:08:33.573Z,9.90
2019-04-03T05:11:07.562Z,10.10
2019-04-03T05:13:40.132Z,10.20
2019-04-03T05:16:14.438Z,10.50
2019-04-03T05:18:47.176Z,10.50
2019-04-03T05:21:21.736Z,10.50
2019-04-03T05:23:56.077Z,10.40
2019-04-03T05:26:31.917Z,10.20
2019-04-03T05:29:04.731Z,10.10
2019-04-03T05:31:39.040Z,10.10
2019-04-03T05:34:13.340Z,10.10
2019-04-03T05:36:46.822Z,10.20
2019-04-03T05:39:22.096Z,10.30
2019-04-03T05:41:58.602Z,10.30
2019-04-03T05:44:32.835Z,10.20
2019-04-03T05:47:07.588Z,10.20
2019-04-03T05:49:39.212Z,10.30
2019-04-03T05:52:12.078Z,10.40
2019-04-03T05:54:44.575Z,10.30
2019-04-03T05:57:16.894Z,10.40
2019-04-03T06:00:00.069Z,10.40
2019-04-03T06:02:24.134Z,10.50
2019-04-03T06:04:57.724Z,10.50
2019-04-03T06:07:29.865Z,10.60
2019-04-03T06:10:01.962Z,10.70
2019-04-03T06:12:37.356Z,11.00
2019-04-03T06:15:11.143Z,11.00
2019-04-03T06:17:45.603Z,11.20
2019-04-03T06:20:19.169Z,11.20
2019-04-03T06:22:52.289Z,11.20
2019-04-03T06:25:28.811Z,11.20
2019-04-03T06:27:59.494Z,11.20
2019-04-03T06:30:32.083Z,11.00
2019-04-03T06:33:04.992Z,11.20
2019-04-03T06:35:37.828Z,11.20
2019-04-03T06:38:09.799Z,11.30
2019-04-03T06:40:42.815Z,11.30
2019-04-03T06:43:17.241Z,11.30
2019-04-03T06:45:52.224Z,11.30
2019-04-03T06:48:26.460Z,11.40
2019-04-03T06:50:59.788Z,11.40
2019-04-03T06:53:33.049Z,11.30
2019-04-03T06:56:07.832Z,11.40
2019-04-03T06:58:40.366Z,11.50
2019-04-03T07:01:13.516Z,11.50
2019-04-03T07:03:45.935Z,11.40
2019-04-03T07:06:19.571Z,11.40
2019-04-03T07:08:51.831Z,11.50
2019-04-03T07:11:24.683Z,11.60
2019-04-03T07:13:57.877Z,11.60
2019-04-03T07:16:31.603Z,11.50
2019-04-03T07:19:05.791Z,11.60
2019-04-03T07:21:41.125Z,11.60
2019-04-03T07:24:14.392Z,11.60
2019-04-03T07:26:47.722Z,11.50
2019-04-03T07:29:20.708Z,11.30
2019-04-03T07:31:55.244Z,11.50
2019-04-03T07:34:27.945Z,11.50
2019-04-03T07:37:01.184Z,11.50
2019-04-03T07:39:33.799Z,11.60
2019-04-03T07:42:06.731Z,11.40
2019-04-03T07:44:40.560Z,11.60
2019-04-03T07:47:13.959Z,11.60
2019-04-03T07:49:45.556Z,11.30
2019-04-03T07:52:18.679Z,11.30
2019-04-03T07:54:52.915Z,11.50
2019-04-03T07:57:28.157Z,11.30
2019-04-03T08:00:01.424Z,11.60
2019-04-03T08:02:34.559Z,11.70
2019-04-03T08:05:11.431Z,11.90
2019-04-03T08:07:44.090Z,11.50
2019-04-03T08:10:16.320Z,11.70
2019-04-03T08:12:49.988Z,12.20
2019-04-03T08:15:23.108Z,11.50
2019-04-03T08:17:57.966Z,11.80
2019-04-03T08:20:31.354Z,12.00
2019-04-03T08:23:15.438Z,12.10
2019-04-03T08:25:53.842Z,12.20
2019-04-03T08:28:29.672Z,12.30
2019-04-03T08:31:01.954Z,12.20
2019-04-03T08:33:35.321Z,12.30
2019-04-03T08:36:08.004Z,12.10
2019-04-03T08:38:44.877Z,12.20
2019-04-03T08:41:18.095Z,12.30
2019-04-03T08:43:52.069Z,12.20
2019-04-03T08:46:24.477Z,12.20
2019-04-03T08:48:58.724Z,12.10
2019-04-03T08:51:50.238Z,12.20
2019-04-03T08:54:24.067Z,12.20
2019-04-03T08:56:56.968Z,12.50
2019-04-03T08:59:29.691Z,12.50
2019-04-03T09:02:21.076Z,12.50
2019-04-03T09:04:55.014Z,12.60
2019-04-03T09:07:29.543Z,12.60
2019-04-03T09:10:02.330Z,12.50
2019-04-03T09:12:38.446Z,12.60
2019-04-03T09:15:12.356Z,12.60
2019-04-03T09:17:44.682Z,13.10
2019-04-03T09:20:16.572Z,12.50
2019-04-03T09:22:53.223Z,12.60
2019-04-03T09:25:27.279Z,12.60
2019-04-03T09:27:59.505Z,12.50
2019-04-03T09:30:33.703Z,12.50
2019-04-03T09:33:07.285Z,12.50
2019-04-03T09:35:42.828Z,12.60
2019-04-03T09:38:16.960Z,12.60
2019-04-03T09:40:49.575Z,12.60
2019-04-03T09:43:23.263Z,12.70
2019-04-03T09:45:59.386Z,12.70
2019-04-03T09:48:31.081Z,12.80
2019-04-03T09:51:02.775Z,12.80
2019-04-03T09:53:34.876Z,12.70
2019-04-03T09:56:08.587Z,12.80
2019-04-03T09:58:41.847Z,12.80
2019-04-03T10:01:18.275Z,12.80
2019-04-03T10:03:53.760Z,12.90
2019-04-03T10:06:26.451Z,12.90
2019-04-03T10:08:59.882Z,13.00
2019-04-03T10:11:33.386Z,13.10
2019-04-03T10:14:08.459Z,13.20
2019-04-03T10:16:42.861Z,13.20
2019-04-03T10:19:15.396Z,13.30
2019-04-03T10:21:52.149Z,13.40
2019-04-03T10:24:23.592Z,13.40
2019-04-03T10:26:55.978Z,13.30
2019-04-03T10:29:30.537Z,13.30
2019-04-03T10:32:03.946Z,13.30
2019-04-03T10:34:36.670Z,13.30
2019-04-03T10:37:12.195Z,13.30
2019-04-03T10:39:45.404Z,13.30
2019-04-03T10:42:19.433Z,13.40
2019-04-03T10:44:51.572Z,13.30
2019-04-03T10:47:30.283Z,13.30
2019-04-03T10:50:04.240Z,13.40
2019-04-03T10:52:36.672Z,13.40
2019-04-03T10:55:09.176Z,13.40
2019-04-03T10:57:42.932Z,13.50
2019-04-03T11:00:18.780Z,13.40
2019-04-03T11:02:52.219Z,13.50
2019-04-03T11:05:27.389Z,13.70
2019-04-03T11:08:19.367Z,13.70
2019-04-03T11:10:53.223Z,13.90
2019-04-03T11:13:27.241Z,13.80
2019-04-03T11:15:59.601Z,13.90
2019-04-03T11:18:32.966Z,14.00
2019-04-03T11:21:06.256Z,14.20
2019-04-03T11:23:44.455Z,14.30
2019-04-03T11:26:13.074Z,14.40
2019-04-03T11:28:47.078Z,14.50
2019-04-03T11:31:27.091Z,14.40
2019-04-03T11:33:58.423Z,14.50
2019-04-03T11:36:32.653Z,14.60
2019-04-03T11:39:13.459Z,14.50
2019-04-03T11:41:40.608Z,14.60
2019-04-03T11:44:17.202Z,14.60
2019-04-03T11:46:49.160Z,14.70
2019-04-03T11:49:22.644Z,15.00
2019-04-03T11:51:55.427Z,14.90
2019-04-03T11:54:28.524Z,15.00
2019-04-03T11:59:57.523Z,15.20
2019-04-03T12:02:30.824Z,15.20
2019-04-03T12:05:04.439Z,15.10
2019-04-03T12:07:37.319Z,15.00
2019-04-03T12:10:10.307Z,15.00
2019-04-03T12:12:43.005Z,15.00
2019-04-03T12:15:16.530Z,15.10
2019-04-03T12:17:49.768Z,15.00
2019-04-03T12:20:21.788Z,15.00
2019-04-03T12:22:55.188Z,14.90
2019-04-03T12:25:28.406Z,15.10
2019-04-03T12:28:06.493Z,15.00
2019-04-03T12:30:38.272Z,15.00
2019-04-03T12:33:11.685Z,15.10
2019-04-03T12:35:43.987Z,15.30
2019-04-03T12:38:17.212Z,15.10
2019-04-03T12:40:49.690Z,15.10
2019-04-03T12:43:24.053Z,15.20
2019-04-03T12:46:01.977Z,15.20
2019-04-03T12:48:32.707Z,15.10
2019-04-03T12:51:04.746Z,15.00
2019-04-03T12:53:39.000Z,15.20
2019-04-03T12:56:12.440Z,15.30
2019-04-03T12:58:46.346Z,15.10
2019-04-03T13:01:20.829Z,14.90
2019-04-03T13:03:55.958Z,14.60
2019-04-03T13:06:29.149Z,14.90
2019-04-03T13:09:02.830Z,14.80
2019-04-03T13:11:37.478Z,14.70
2019-04-03T13:14:22.498Z,15.00
2019-04-03T13:16:47.674Z,15.30
2019-04-03T13:19:20.608Z,15.40
2019-04-03T13:21:55.339Z,15.40
2019-04-03T13:24:27.713Z,15.40
2019-04-03T13:27:00.520Z,15.40
2019-04-03T13:29:34.932Z,15.30
2019-04-03T13:32:08.467Z,15.40
2019-04-03T13:34:43.319Z,15.00
2019-04-03T13:37:22.282Z,15.30
2019-04-03T13:39:53.411Z,15.20
2019-04-03T13:42:26.453Z,15.20
2019-04-03T13:45:00.168Z,15.20
2019-04-03T13:47:34.174Z,15.20
2019-04-03T13:50:08.398Z,15.00
2019-04-03T13:52:47.587Z,14.90
2019-04-03T13:55:17.816Z,14.70
2019-04-03T13:57:51.447Z,14.90
2019-04-03T14:00:24.417Z,14.90
2019-04-03T14:02:58.330Z,14.90
2019-04-03T14:05:33.264Z,14.70
2019-04-03T14:08:07.431Z,14.80
2019-04-03T14:10:40.724Z,14.70
2019-04-03T14:13:13.072Z,14.50
2019-04-03T14:15:47.044Z,14.50
2019-04-03T14:18:29.928Z,14.50
2019-04-03T14:21:03.017Z,14.40
2019-04-03T14:23:35.977Z,14.40
2019-04-03T14:26:12.968Z,14.40
2019-04-03T14:28:57.932Z,14.40
2019-04-03T14:31:35.607Z,14.40
2019-04-03T14:34:06.722Z,14.30
2019-04-03T14:36:39.627Z,14.20
2019-04-03T14:39:12.417Z,14.20
2019-04-03T14:41:45.282Z,14.20
2019-04-03T14:44:18.256Z,14.10
2019-04-03T14:46:52.443Z,14.10
2019-04-03T14:49:26.464Z,14.00
2019-04-03T14:51:59.783Z,13.90
2019-04-03T14:54:32.566Z,13.80
2019-04-03T14:57:15.609Z,13.80
2019-04-03T14:59:41.168Z,13.90
2019-04-03T15:02:17.133Z,13.90
2019-04-03T15:04:51.234Z,13.80
2019-04-03T15:07:27.275Z,13.70
2019-04-03T15:10:01.197Z,13.70
2019-04-03T15:12:34.532Z,13.70
2019-04-03T15:15:10.314Z,13.60
2019-04-03T15:17:43.134Z,13.60
2019-04-03T15:20:18.379Z,13.50
2019-04-03T15:22:50.606Z,13.60
2019-04-03T15:25:24.883Z,13.50
2019-04-03T15:28:00.467Z,13.60
2019-04-03T15:30:37.275Z,13.30
2019-04-03T15:33:13.823Z,13.20
2019-04-03T15:35:48.803Z,13.00
2019-04-03T15:38:25.461Z,12.60
2019-04-03T15:40:59.884Z,12.80
2019-04-03T15:43:39.304Z,12.70
2019-04-03T15:46:12.991Z,12.50
2019-04-03T15:48:47.201Z,12.40
2019-04-03T15:51:20.954Z,12.50
2019-04-03T15:53:54.288Z,12.50
2019-04-03T15:56:29.054Z,12.30
2019-04-03T15:59:01.976Z,12.40
2019-04-03T16:01:38.715Z,12.10
2019-04-03T16:04:11.808Z,12.00
2019-04-03T16:06:48.341Z,12.10
2019-04-03T16:09:21.223Z,12.00
2019-04-03T16:11:55.232Z,11.90
2019-04-03T16:14:29.009Z,11.90
2019-04-03T16:17:03.021Z,11.90
2019-04-03T16:19:35.667Z,11.80
2019-04-03T16:22:09.194Z,11.90
2019-04-03T16:24:43.862Z,12.00
2019-04-03T16:27:17.418Z,11.80
2019-04-03T16:29:50.829Z,11.60
2019-04-03T16:32:27.438Z,11.60
2019-04-03T16:35:03.633Z,11.60
2019-04-03T16:37:37.233Z,11.40
2019-04-03T16:40:11.185Z,11.30
2019-04-03T16:42:48.605Z,11.30
2019-04-03T16:45:23.338Z,11.50
2019-04-03T16:47:56.832Z,11.60
2019-04-03T16:50:31.630Z,11.40
2019-04-03T16:53:07.485Z,11.30
2019-04-03T16:55:41.373Z,11.30
2019-04-03T16:58:15.771Z,11.20
2019-04-03T17:00:50.547Z,11.10
2019-04-03T17:03:25.183Z,11.20
2019-04-03T17:06:00.324Z,11.10
2019-04-03T17:08:35.032Z,11.20
2019-04-03T17:11:09.950Z,11.20
2019-04-03T17:13:46.566Z,11.20
2019-04-03T17:16:19.994Z,11.10
2019-04-03T17:18:54.031Z,11.10
2019-04-03T17:21:34.067Z,11.10
2019-04-03T17:24:03.824Z,11.00
2019-04-03T17:26:47.815Z,11.10
2019-04-03T17:29:13.974Z,11.00
2019-04-03T17:31:48.428Z,11.10
2019-04-03T17:34:22.149Z,11.10
2019-04-03T17:36:55.478Z,11.30
2019-04-03T17:39:29.678Z,11.20
2019-04-03T17:42:12.591Z,11.20
2019-04-03T17:44:46.396Z,11.20
2019-04-03T17:47:20.044Z,11.10
2019-04-03T17:49:52.896Z,11.10
2019-04-03T17:52:26.040Z,11.00
2019-04-03T17:54:59.961Z,11.10
2019-04-03T17:57:34.100Z,11.10
2019-04-03T18:00:08.667Z,11.10
2019-04-03T18:02:42.527Z,11.30
2019-04-03T18:05:14.648Z,11.30
2019-04-03T18:07:47.066Z,11.30
2019-04-03T18:10:21.287Z,11.40
2019-04-03T18:12:54.189Z,11.30
2019-04-03T18:15:29.187Z,11.50
2019-04-03T18:18:04.447Z,11.50
2019-04-03T18:20:38.019Z,11.60
2019-04-03T18:23:12.838Z,11.50
2019-04-03T18:25:46.566Z,11.50
2019-04-03T18:28:20.982Z,11.40
2019-04-03T18:30:53.584Z,11.50
2019-04-03T18:33:27.086Z,11.50
2019-04-03T18:36:00.965Z,11.50
2019-04-03T18:38:36.727Z,11.50
2019-04-03T18:41:09.696Z,11.40
2019-04-03T18:43:46.051Z,11.40
2019-04-03T18:46:31.657Z,11.40
2019-04-03T18:48:58.840Z,11.40
2019-04-03T18:51:29.706Z,11.40
2019-04-03T18:54:02.090Z,11.40
2019-04-03T18:56:34.507Z,11.40
2019-04-03T18:59:07.067Z,11.40
2019-04-03T19:01:39.695Z,11.30
2019-04-03T19:04:13.523Z,11.30
2019-04-03T19:06:46.001Z,11.30
2019-04-03T19:09:21.363Z,11.30
2019-04-03T19:11:54.983Z,11.30
2019-04-03T19:14:31.629Z,11.30
2019-04-03T19:17:04.104Z,11.20
2019-04-03T19:19:38.456Z,11.20
2019-04-03T19:22:14.307Z,11.20
2019-04-03T19:24:47.298Z,11.10
2019-04-03T19:27:20.460Z,11.20
2019-04-03T19:29:53.153Z,11.20
2019-04-03T19:32:25.258Z,11.20
2019-04-03T19:34:59.710Z,11.20
2019-04-03T19:37:34.270Z,11.10
2019-04-03T19:40:09.576Z,11.10
2019-04-03T19:42:43.529Z,11.10
2019-04-03T19:45:15.395Z,11.00
2019-04-03T19:47:48.591Z,11.00
2019-04-03T19:50:23.885Z,11.00
2019-04-03T19:52:56.276Z,10.80
2019-04-03T19:55:29.767Z,10.80
2019-04-03T19:58:02.464Z,10.80
2019-04-03T20:00:36.548Z,10.70
2019-04-03T20:03:08.862Z,10.60
2019-04-03T20:05:43.780Z,10.60
2019-04-03T20:08:18.325Z,10.60
2019-04-03T20:10:52.347Z,10.50
2019-04-03T20:13:27.850Z,10.30
2019-04-03T20:16:00.811Z,10.20
2019-04-03T20:18:33.883Z,10.20
2019-04-03T20:21:05.886Z,10.30
2019-04-03T20:23:41.544Z,10.30
2019-04-03T20:26:13.115Z,10.30
2019-04-03T20:28:45.440Z,10.30
2019-04-03T20:31:18.661Z,10.40
2019-04-03T20:33:51.869Z,10.50
2019-04-03T20:36:25.823Z,10.50
2019-04-03T20:38:59.771Z,10.60
2019-04-03T20:41:32.927Z,10.70
2019-04-03T20:44:07.206Z,10.70
2019-04-03T20:46:40.319Z,10.80
2019-04-03T20:49:14.067Z,10.60
2019-04-03T20:51:48.717Z,10.70
2019-04-03T20:54:23.150Z,10.70
2019-04-03T20:56:57.921Z,10.70
2019-04-03T20:59:30.318Z,10.60
2019-04-03T21:02:08.001Z,10.50
2019-04-03T21:04:50.586Z,10.50
2019-04-03T21:07:24.637Z,10.50
2019-04-03T21:10:00.870Z,10.50
2019-04-03T21:12:35.526Z,10.50
2019-04-03T21:15:09.444Z,10.40
2019-04-03T21:17:42.876Z,10.40
2019-04-03T21:20:17.687Z,10.20
2019-04-03T21:22:51.658Z,10.20
2019-04-03T21:25:24.192Z,10.10
2019-04-03T21:27:59.803Z,10.00
2019-04-03T21:30:32.451Z,10.00
2019-04-03T21:33:06.627Z,10.00
2019-04-03T21:35:40.733Z,9.90
2019-04-03T21:38:14.019Z,9.80
2019-04-03T21:40:46.920Z,9.70
2019-04-03T21:43:21.186Z,9.70
2019-04-03T21:45:54.979Z,9.70
2019-04-03T21:48:29.229Z,9.60
2019-04-03T21:51:20.814Z,9.50
2019-04-03T21:53:56.453Z,9.40
2019-04-03T21:56:31.026Z,9.30
2019-04-03T21:59:04.606Z,9.20
2019-04-03T22:01:38.284Z,9.10
2019-04-03T22:04:12.401Z,9.00
2019-04-03T22:06:44.647Z,9.10
2019-04-03T22:09:17.931Z,9.10
2019-04-03T22:11:51.166Z,9.20
2019-04-03T22:14:23.656Z,9.20
2019-04-03T22:16:55.388Z,9.20
2019-04-03T22:19:28.335Z,9.10
2019-04-03T22:22:02.948Z,9.10
2019-04-03T22:24:37.815Z,9.10
2019-04-03T22:27:11.734Z,9.10
2019-04-03T22:29:48.939Z,9.20
2019-04-03T22:32:23.026Z,9.20
2019-04-03T22:34:56.263Z,9.10
2019-04-03T22:37:28.152Z,9.00
2019-04-03T22:40:03.383Z,9.00
2019-04-03T22:42:36.992Z,8.90
2019-04-03T22:45:09.903Z,8.90
2019-04-03T22:47:43.339Z,8.90
2019-04-03T22:50:15.995Z,8.90
2019-04-03T22:52:48.324Z,8.80
2019-04-03T22:55:22.441Z,8.70
2019-04-03T22:57:54.846Z,8.60
2019-04-03T23:00:29.528Z,8.50
2019-04-03T23:03:03.518Z,8.50
2019-04-03T23:05:37.828Z,8.30
2019-04-03T23:08:11.639Z,8.30
2019-04-03T23:10:45.377Z,8.30
2019-04-03T23:13:17.959Z,8.30
2019-04-03T23:15:51.104Z,8.30
2019-04-03T23:18:23.477Z,8.20
2019-04-03T23:20:57.034Z,8.20
2019-04-03T23:23:30.080Z,8.20
2019-04-03T23:26:02.195Z,8.10
2019-04-03T23:28:34.953Z,8.10
2019-04-03T23:31:08.255Z,8.00
2019-04-03T23:33:43.547Z,8.00
2019-04-03T23:36:16.192Z,8.00
2019-04-03T23:38:49.699Z,8.10
2019-04-03T23:41:22.722Z,8.10
2019-04-03T23:43:55.550Z,8.00
2019-04-03T23:46:28.026Z,7.90
2019-04-03T23:49:01.088Z,7.90
2019-04-03T23:51:34.080Z,7.90
2019-04-03T23:54:07.282Z,7.80
2019-04-03T23:56:40.787Z,7.80
2019-04-03T23:59:13.979Z,7.80
